Washington, District of Columbia
Current Conditions -  °F | °C
As of 9:52 PM on Wednesday 22 Oct 2014 (Local Time) from KDCA Reporting Station
Overcast Overcast  
Wind Chill: 57°   Ceiling: 3600
Heat Index: 57°   Visibility: 10mi
Dew Point: 44°   Wind: 15mph
Humidity: 62%   Direction: 320°NW
Pressure: 29.96"   Gusts: 22mph
Location:  38.89°N, 77.03°W
Report Text: KDCA 230152Z 32013G19KT 10SM OVC036 14/07 A2996 RMK AO2 SLP145 T01390067
Loading
Personal Weather Stations






























Interactive Weather Map New forecast layout! Learn more

10-Day Weather Forecast

Advertisements
Track Severe Weather on mobile